sensor_id;sensor_type;location;lat;lon;timestamp;pressure;altitude;pressure_sealevel;temperature;humidity
39051;BME280;24805;55.852;37.644;2023-04-19T00:02:33;100324.47;;;11.34;32.69
39051;BME280;24805;55.852;37.644;2023-04-19T00:07:36;100321.97;;;11.33;32.23
39051;BME280;24805;55.852;37.644;2023-04-19T00:12:38;100305.84;;;11.26;31.98
39051;BME280;24805;55.852;37.644;2023-04-19T00:17:40;100334.41;;;11.40;31.47
39051;BME280;24805;55.852;37.644;2023-04-19T00:22:42;100329.63;;;11.44;31.63
39051;BME280;24805;55.852;37.644;2023-04-19T00:27:44;100341.00;;;11.95;30.49
39051;BME280;24805;55.852;37.644;2023-04-19T00:32:46;100338.28;;;11.54;31.02
39051;BME280;24805;55.852;37.644;2023-04-19T00:37:49;100315.81;;;11.40;31.41
39051;BME280;24805;55.852;37.644;2023-04-19T00:42:51;100348.09;;;11.54;31.87
39051;BME280;24805;55.852;37.644;2023-04-19T00:47:53;100338.50;;;12.01;30.31
39051;BME280;24805;55.852;37.644;2023-04-19T00:52:56;100344.13;;;11.58;31.15
39051;BME280;24805;55.852;37.644;2023-04-19T00:57:59;100341.94;;;11.53;31.46
39051;BME280;24805;55.852;37.644;2023-04-19T01:03:01;100340.59;;;11.49;31.44
39051;BME280;24805;55.852;37.644;2023-04-19T01:08:05;100336.44;;;11.47;31.69
39051;BME280;24805;55.852;37.644;2023-04-19T01:13:07;100333.28;;;11.35;31.67
39051;BME280;24805;55.852;37.644;2023-04-19T01:18:11;100342.56;;;11.31;32.03
39051;BME280;24805;55.852;37.644;2023-04-19T01:23:16;100334.53;;;11.23;31.71
39051;BME280;24805;55.852;37.644;2023-04-19T01:28:18;100338.63;;;11.67;30.95
39051;BME280;24805;55.852;37.644;2023-04-19T01:33:23;100338.34;;;11.20;31.06
39051;BME280;24805;55.852;37.644;2023-04-19T01:38:25;100342.19;;;11.18;32.10
39051;BME280;24805;55.852;37.644;2023-04-19T01:43:27;100338.50;;;11.11;32.33
39051;BME280;24805;55.852;37.644;2023-04-19T01:48:29;100333.34;;;11.09;32.27
39051;BME280;24805;55.852;37.644;2023-04-19T01:53:33;100333.34;;;11.09;31.86
39051;BME280;24805;55.852;37.644;2023-04-19T01:58:36;100330.03;;;11.07;31.92
39051;BME280;24805;55.852;37.644;2023-04-19T02:03:38;100326.22;;;11.10;32.24
39051;BME280;24805;55.852;37.644;2023-04-19T02:08:41;100333.50;;;11.08;32.17
39051;BME280;24805;55.852;37.644;2023-04-19T02:13:44;100324.88;;;11.05;32.45
39051;BME280;24805;55.852;37.644;2023-04-19T02:18:46;100323.88;;;10.98;32.39
39051;BME280;24805;55.852;37.644;2023-04-19T02:23:49;100313.53;;;10.87;32.57
39051;BME280;24805;55.852;37.644;2023-04-19T02:28:51;100337.47;;;10.95;32.58
39051;BME280;24805;55.852;37.644;2023-04-19T02:33:54;100333.94;;;10.87;32.63
39051;BME280;24805;55.852;37.644;2023-04-19T02:38:56;100337.25;;;10.89;32.61
39051;BME280;24805;55.852;37.644;2023-04-19T02:44:00;100343.72;;;10.86;32.17
39051;BME280;24805;55.852;37.644;2023-04-19T02:49:02;100346.22;;;10.88;32.82
39051;BME280;24805;55.852;37.644;2023-04-19T02:54:04;100350.53;;;10.89;32.69
39051;BME280;24805;55.852;37.644;2023-04-19T02:59:07;100359.34;;;10.89;33.35
39051;BME280;24805;55.852;37.644;2023-04-19T03:04:09;100351.06;;;10.92;32.71
39051;BME280;24805;55.852;37.644;2023-04-19T03:09:13;100357.56;;;10.98;32.50
39051;BME280;24805;55.852;37.644;2023-04-19T03:14:16;100350.91;;;11.02;32.65
39051;BME280;24805;55.852;37.644;2023-04-19T03:19:18;100359.59;;;11.12;32.10
39051;BME280;24805;55.852;37.644;2023-04-19T03:24:31;100360.66;;;11.35;32.32
39051;BME280;24805;55.852;37.644;2023-04-19T03:29:48;100352.66;;;11.27;32.05
39051;BME280;24805;55.852;37.644;2023-04-19T03:34:51;100353.34;;;11.29;32.33
39051;BME280;24805;55.852;37.644;2023-04-19T03:39:53;100352.38;;;11.38;32.20
39051;BME280;24805;55.852;37.644;2023-04-19T03:45:04;100352.69;;;11.44;31.38
39051;BME280;24805;55.852;37.644;2023-04-19T03:50:11;100355.06;;;11.63;31.50
39051;BME280;24805;55.852;37.644;2023-04-19T03:55:16;100363.06;;;11.71;31.27
39051;BME280;24805;55.852;37.644;2023-04-19T04:00:18;100356.28;;;11.77;31.45
39051;BME280;24805;55.852;37.644;2023-04-19T04:05:27;100365.44;;;11.90;31.25
39051;BME280;24805;55.852;37.644;2023-04-19T04:10:30;100354.44;;;12.01;30.82
39051;BME280;24805;55.852;37.644;2023-04-19T04:15:32;100363.09;;;12.20;30.28
39051;BME280;24805;55.852;37.644;2023-04-19T04:20:35;100369.88;;;12.47;30.27
39051;BME280;24805;55.852;37.644;2023-04-19T04:25:42;100344.22;;;12.62;30.71
39051;BME280;24805;55.852;37.644;2023-04-19T04:30:47;100363.44;;;12.96;29.66
39051;BME280;24805;55.852;37.644;2023-04-19T04:35:49;100363.53;;;13.11;29.40
39051;BME280;24805;55.852;37.644;2023-04-19T04:40:56;100360.78;;;13.35;29.64
39051;BME280;24805;55.852;37.644;2023-04-19T04:45:59;100382.00;;;13.52;29.01
39051;BME280;24805;55.852;37.644;2023-04-19T04:51:07;100386.22;;;13.69;29.54
39051;BME280;24805;55.852;37.644;2023-04-19T04:56:10;100383.44;;;13.85;28.66
39051;BME280;24805;55.852;37.644;2023-04-19T05:01:12;100384.28;;;13.86;29.34
39051;BME280;24805;55.852;37.644;2023-04-19T05:06:15;100390.63;;;14.07;28.83
39051;BME280;24805;55.852;37.644;2023-04-19T05:11:19;100366.19;;;14.56;27.55
39051;BME280;24805;55.852;37.644;2023-04-19T05:16:22;100381.25;;;15.23;27.06
39051;BME280;24805;55.852;37.644;2023-04-19T05:21:24;100387.66;;;15.72;26.24
39051;BME280;24805;55.852;37.644;2023-04-19T05:26:28;100398.34;;;15.72;25.51
39051;BME280;24805;55.852;37.644;2023-04-19T05:31:30;100406.03;;;16.25;25.72
39051;BME280;24805;55.852;37.644;2023-04-19T05:36:51;100395.78;;;17.66;24.21
39051;BME280;24805;55.852;37.644;2023-04-19T05:41:54;100402.28;;;18.51;23.58
39051;BME280;24805;55.852;37.644;2023-04-19T05:46:57;100388.81;;;18.90;22.66
39051;BME280;24805;55.852;37.644;2023-04-19T05:52:19;100392.16;;;20.45;24.93
39051;BME280;24805;55.852;37.644;2023-04-19T05:57:26;100392.53;;;20.48;21.22
39051;BME280;24805;55.852;37.644;2023-04-19T06:02:28;100385.19;;;20.98;20.40
39051;BME280;24805;55.852;37.644;2023-04-19T06:07:31;100385.47;;;20.72;19.94
39051;BME280;24805;55.852;37.644;2023-04-19T06:12:39;100396.09;;;21.77;19.30
39051;BME280;24805;55.852;37.644;2023-04-19T06:17:41;100396.41;;;23.38;17.99
39051;BME280;24805;55.852;37.644;2023-04-19T06:22:44;100398.38;;;24.45;16.37
39051;BME280;24805;55.852;37.644;2023-04-19T06:27:46;100390.13;;;24.23;16.43
39051;BME280;24805;55.852;37.644;2023-04-19T06:32:48;100397.38;;;24.18;16.22
39051;BME280;24805;55.852;37.644;2023-04-19T06:37:50;100399.66;;;24.93;15.73
39051;BME280;24805;55.852;37.644;2023-04-19T06:42:53;100390.03;;;25.67;15.41
39051;BME280;24805;55.852;37.644;2023-04-19T06:47:55;100386.31;;;26.05;14.38
39051;BME280;24805;55.852;37.644;2023-04-19T06:52:57;100394.06;;;26.51;14.14
39051;BME280;24805;55.852;37.644;2023-04-19T06:57:59;100388.41;;;26.62;13.89
39051;BME280;24805;55.852;37.644;2023-04-19T07:03:01;100398.41;;;27.46;13.93
39051;BME280;24805;55.852;37.644;2023-04-19T07:08:04;100409.19;;;28.64;12.78
39051;BME280;24805;55.852;37.644;2023-04-19T07:13:06;100400.00;;;29.89;12.42
39051;BME280;24805;55.852;37.644;2023-04-19T07:18:08;100402.75;;;29.89;12.04
39051;BME280;24805;55.852;37.644;2023-04-19T07:23:15;100397.22;;;30.67;11.70
39051;BME280;24805;55.852;37.644;2023-04-19T07:28:17;100389.34;;;31.13;11.20
39051;BME280;24805;55.852;37.644;2023-04-19T07:33:22;100412.47;;;32.06;11.36
39051;BME280;24805;55.852;37.644;2023-04-19T07:38:28;100393.50;;;32.42;11.04
39051;BME280;24805;55.852;37.644;2023-04-19T07:43:31;100395.75;;;33.28;10.35
39051;BME280;24805;55.852;37.644;2023-04-19T07:48:33;100395.53;;;33.87;9.72
39051;BME280;24805;55.852;37.644;2023-04-19T07:53:35;100390.88;;;34.10;9.60
39051;BME280;24805;55.852;37.644;2023-04-19T07:58:37;100395.06;;;34.61;9.07
39051;BME280;24805;55.852;37.644;2023-04-19T08:03:43;100391.22;;;35.02;9.45
39051;BME280;24805;55.852;37.644;2023-04-19T08:08:46;100391.88;;;35.55;9.02
39051;BME280;24805;55.852;37.644;2023-04-19T08:13:51;100391.56;;;35.83;9.15
39051;BME280;24805;55.852;37.644;2023-04-19T08:19:13;100388.06;;;36.72;8.47
39051;BME280;24805;55.852;37.644;2023-04-19T08:24:15;100385.19;;;36.51;7.87
39051;BME280;24805;55.852;37.644;2023-04-19T08:29:21;100390.50;;;36.74;8.84
39051;BME280;24805;55.852;37.644;2023-04-19T08:34:24;100375.19;;;36.68;8.52
39051;BME280;24805;55.852;37.644;2023-04-19T08:39:26;100371.91;;;36.83;7.78
39051;BME280;24805;55.852;37.644;2023-04-19T08:44:35;100379.19;;;36.87;8.08
39051;BME280;24805;55.852;37.644;2023-04-19T08:50:02;100379.38;;;37.71;7.89
39051;BME280;24805;55.852;37.644;2023-04-19T08:55:26;100378.72;;;37.74;8.12
39051;BME280;24805;55.852;37.644;2023-04-19T09:00:30;100376.59;;;39.55;6.90
39051;BME280;24805;55.852;37.644;2023-04-19T09:05:33;100364.00;;;40.13;6.48
39051;BME280;24805;55.852;37.644;2023-04-19T09:10:51;100368.59;;;41.32;6.52
39051;BME280;24805;55.852;37.644;2023-04-19T09:15:53;100343.47;;;41.28;6.17
39051;BME280;24805;55.852;37.644;2023-04-19T09:20:58;100344.50;;;40.41;6.31
39051;BME280;24805;55.852;37.644;2023-04-19T09:26:01;100348.91;;;40.42;6.37
39051;BME280;24805;55.852;37.644;2023-04-19T09:31:12;100345.16;;;40.35;6.62
39051;BME280;24805;55.852;37.644;2023-04-19T09:36:34;100336.09;;;39.82;6.43
39051;BME280;24805;55.852;37.644;2023-04-19T09:41:50;100337.53;;;40.32;6.15
39051;BME280;24805;55.852;37.644;2023-04-19T09:46:53;100323.38;;;39.93;6.01
39051;BME280;24805;55.852;37.644;2023-04-19T09:51:56;100323.84;;;39.83;6.29
39051;BME280;24805;55.852;37.644;2023-04-19T09:56:59;100329.69;;;39.66;6.75
39051;BME280;24805;55.852;37.644;2023-04-19T10:02:03;100321.28;;;41.32;5.69
39051;BME280;24805;55.852;37.644;2023-04-19T10:07:07;100333.13;;;41.28;5.36
39051;BME280;24805;55.852;37.644;2023-04-19T10:12:30;100320.91;;;41.33;5.26
39051;BME280;24805;55.852;37.644;2023-04-19T10:17:53;100323.50;;;40.28;5.63
39051;BME280;24805;55.852;37.644;2023-04-19T10:22:56;100319.69;;;40.33;5.24
39051;BME280;24805;55.852;37.644;2023-04-19T10:27:58;100303.25;;;40.90;5.52
39051;BME280;24805;55.852;37.644;2023-04-19T10:33:00;100315.09;;;40.72;5.71
39051;BME280;24805;55.852;37.644;2023-04-19T10:38:09;100312.13;;;41.31;5.23
39051;BME280;24805;55.852;37.644;2023-04-19T10:43:14;100308.25;;;41.55;5.58
39051;BME280;24805;55.852;37.644;2023-04-19T11:09:39;100283.88;;;40.47;5.57
39051;BME280;24805;55.852;37.644;2023-04-19T11:14:48;100283.13;;;40.03;5.50
39051;BME280;24805;55.852;37.644;2023-04-19T11:19:55;100274.22;;;39.53;5.58
39051;BME280;24805;55.852;37.644;2023-04-19T11:25:17;100278.84;;;40.84;5.77
39051;BME280;24805;55.852;37.644;2023-04-19T11:30:28;100271.84;;;39.96;5.35
39051;BME280;24805;55.852;37.644;2023-04-19T11:35:31;100269.66;;;39.33;5.64
39051;BME280;24805;55.852;37.644;2023-04-19T11:40:33;100259.91;;;38.87;5.74
39051;BME280;24805;55.852;37.644;2023-04-19T11:45:38;100251.66;;;39.43;5.49
39051;BME280;24805;55.852;37.644;2023-04-19T11:50:43;100261.09;;;40.10;5.69
39051;BME280;24805;55.852;37.644;2023-04-19T11:55:48;100239.19;;;39.09;5.92
39051;BME280;24805;55.852;37.644;2023-04-19T12:01:09;100237.34;;;39.13;6.23
39051;BME280;24805;55.852;37.644;2023-04-19T12:06:16;100249.06;;;39.34;5.73
39051;BME280;24805;55.852;37.644;2023-04-19T12:11:21;100251.16;;;39.25;5.49
39051;BME280;24805;55.852;37.644;2023-04-19T12:16:28;100234.22;;;39.14;5.88
39051;BME280;24805;55.852;37.644;2023-04-19T12:21:30;100243.53;;;38.70;5.79
39051;BME280;24805;55.852;37.644;2023-04-19T12:26:33;100230.22;;;38.39;5.90
39051;BME280;24805;55.852;37.644;2023-04-19T12:31:35;100217.72;;;38.08;5.97
39051;BME280;24805;55.852;37.644;2023-04-19T12:36:38;100223.34;;;37.54;6.16
39051;BME280;24805;55.852;37.644;2023-04-19T12:41:40;100212.28;;;36.92;6.15
39051;BME280;24805;55.852;37.644;2023-04-19T12:46:42;100203.75;;;35.45;6.56
39051;BME280;24805;55.852;37.644;2023-04-19T12:51:44;100214.38;;;34.69;7.54
39051;BME280;24805;55.852;37.644;2023-04-19T12:56:48;100195.91;;;33.37;7.92
39051;BME280;24805;55.852;37.644;2023-04-19T13:01:50;100201.75;;;32.58;8.24
39051;BME280;24805;55.852;37.644;2023-04-19T13:06:53;100204.25;;;31.72;8.82
39051;BME280;24805;55.852;37.644;2023-04-19T13:11:55;100200.75;;;32.13;8.84
39051;BME280;24805;55.852;37.644;2023-04-19T13:16:57;100198.13;;;32.76;8.73
39051;BME280;24805;55.852;37.644;2023-04-19T13:21:59;100199.91;;;32.95;8.00
39051;BME280;24805;55.852;37.644;2023-04-19T13:27:01;100200.22;;;32.79;8.71
39051;BME280;24805;55.852;37.644;2023-04-19T13:32:03;100188.00;;;32.03;8.35
39051;BME280;24805;55.852;37.644;2023-04-19T13:37:14;100182.94;;;31.97;9.24
39051;BME280;24805;55.852;37.644;2023-04-19T13:42:17;100197.44;;;31.51;9.08
39051;BME280;24805;55.852;37.644;2023-04-19T13:47:19;100191.53;;;31.25;9.02
39051;BME280;24805;55.852;37.644;2023-04-19T13:52:22;100181.63;;;30.49;9.68
39051;BME280;24805;55.852;37.644;2023-04-19T13:57:24;100187.47;;;29.61;10.21
39051;BME280;24805;55.852;37.644;2023-04-19T14:02:27;100190.81;;;28.59;10.42
39051;BME280;24805;55.852;37.644;2023-04-19T14:07:29;100185.84;;;27.41;11.38
39051;BME280;24805;55.852;37.644;2023-04-19T14:12:32;100194.28;;;26.36;12.13
39051;BME280;24805;55.852;37.644;2023-04-19T14:17:34;100187.16;;;25.51;12.77
39051;BME280;24805;55.852;37.644;2023-04-19T14:22:37;100183.63;;;24.70;13.23
39051;BME280;24805;55.852;37.644;2023-04-19T14:27:39;100199.72;;;24.16;13.64
39051;BME280;24805;55.852;37.644;2023-04-19T14:32:41;100190.25;;;23.97;13.96
39051;BME280;24805;55.852;37.644;2023-04-19T14:37:44;100192.38;;;23.78;13.80
39051;BME280;24805;55.852;37.644;2023-04-19T14:42:46;100157.06;;;23.40;14.24
39051;BME280;24805;55.852;37.644;2023-04-19T14:47:48;100180.59;;;23.22;14.18
39051;BME280;24805;55.852;37.644;2023-04-19T14:52:50;100193.28;;;22.77;14.50
39051;BME280;24805;55.852;37.644;2023-04-19T14:57:54;100198.81;;;22.18;14.98
39051;BME280;24805;55.852;37.644;2023-04-19T15:02:56;100197.72;;;21.49;15.61
39051;BME280;24805;55.852;37.644;2023-04-19T15:07:58;100191.44;;;20.95;16.09
39051;BME280;24805;55.852;37.644;2023-04-19T15:13:00;100186.38;;;20.57;16.39
39051;BME280;24805;55.852;37.644;2023-04-19T15:18:02;100191.81;;;20.33;16.70
39051;BME280;24805;55.852;37.644;2023-04-19T15:23:05;100192.41;;;20.16;17.01
39051;BME280;24805;55.852;37.644;2023-04-19T15:28:07;100186.91;;;20.05;17.23
39051;BME280;24805;55.852;37.644;2023-04-19T15:33:09;100183.00;;;19.82;17.25
39051;BME280;24805;55.852;37.644;2023-04-19T15:38:12;100184.38;;;19.67;17.33
39051;BME280;24805;55.852;37.644;2023-04-19T15:43:14;100189.44;;;19.56;17.38
39051;BME280;24805;55.852;37.644;2023-04-19T15:48:17;100188.91;;;19.41;17.20
39051;BME280;24805;55.852;37.644;2023-04-19T15:53:19;100191.88;;;19.33;17.46
39051;BME280;24805;55.852;37.644;2023-04-19T15:58:21;100190.19;;;19.07;17.57
39051;BME280;24805;55.852;37.644;2023-04-19T16:03:24;100194.22;;;18.91;17.49
39051;BME280;24805;55.852;37.644;2023-04-19T16:08:27;100195.13;;;18.72;17.85
39051;BME280;24805;55.852;37.644;2023-04-19T16:13:29;100195.59;;;18.56;17.96
39051;BME280;24805;55.852;37.644;2023-04-19T16:18:32;100191.91;;;18.44;18.34
39051;BME280;24805;55.852;37.644;2023-04-19T16:23:34;100196.91;;;18.34;18.61
39051;BME280;24805;55.852;37.644;2023-04-19T16:28:36;100199.03;;;18.18;18.53
39051;BME280;24805;55.852;37.644;2023-04-19T16:33:38;100197.81;;;18.01;18.64
39051;BME280;24805;55.852;37.644;2023-04-19T16:38:40;100186.91;;;17.76;18.97
39051;BME280;24805;55.852;37.644;2023-04-19T16:43:43;100208.78;;;17.67;19.05
39051;BME280;24805;55.852;37.644;2023-04-19T16:48:45;100207.72;;;17.48;19.07
39051;BME280;24805;55.852;37.644;2023-04-19T16:53:47;100204.63;;;17.31;19.14
39051;BME280;24805;55.852;37.644;2023-04-19T16:58:49;100215.53;;;17.23;19.04
39051;BME280;24805;55.852;37.644;2023-04-19T17:03:52;100206.25;;;17.12;19.59
39051;BME280;24805;55.852;37.644;2023-04-19T17:08:54;100207.84;;;17.00;20.10
39051;BME280;24805;55.852;37.644;2023-04-19T17:13:57;100213.38;;;16.85;20.20
39051;BME280;24805;55.852;37.644;2023-04-19T17:19:00;100214.75;;;16.68;20.68
39051;BME280;24805;55.852;37.644;2023-04-19T17:24:02;100227.88;;;16.57;21.02
39051;BME280;24805;55.852;37.644;2023-04-19T17:29:04;100215.63;;;16.41;21.15
39051;BME280;24805;55.852;37.644;2023-04-19T17:34:06;100222.56;;;16.29;21.37
39051;BME280;24805;55.852;37.644;2023-04-19T17:39:09;100223.53;;;16.14;21.21
39051;BME280;24805;55.852;37.644;2023-04-19T17:44:11;100224.44;;;16.00;21.47
39051;BME280;24805;55.852;37.644;2023-04-19T17:49:14;100224.38;;;15.87;22.04
39051;BME280;24805;55.852;37.644;2023-04-19T17:54:18;100227.59;;;15.76;22.34
39051;BME280;24805;55.852;37.644;2023-04-19T17:59:21;100229.13;;;15.64;22.72
39051;BME280;24805;55.852;37.644;2023-04-19T18:04:24;100220.75;;;15.52;22.93
39051;BME280;24805;55.852;37.644;2023-04-19T18:09:26;100223.09;;;15.40;23.01
39051;BME280;24805;55.852;37.644;2023-04-19T18:14:28;100224.28;;;15.74;20.96
39051;BME280;24805;55.852;37.644;2023-04-19T18:19:30;100220.44;;;15.19;23.20
39051;BME280;24805;55.852;37.644;2023-04-19T18:24:32;100225.38;;;15.01;23.07
39051;BME280;24805;55.852;37.644;2023-04-19T18:29:34;100221.59;;;15.31;21.24
39051;BME280;24805;55.852;37.644;2023-04-19T18:34:36;100227.66;;;14.82;23.21
39051;BME280;24805;55.852;37.644;2023-04-19T18:39:38;100224.91;;;15.12;21.50
39051;BME280;24805;55.852;37.644;2023-04-19T18:44:40;100221.88;;;14.64;23.22
39051;BME280;24805;55.852;37.644;2023-04-19T18:49:45;100226.25;;;14.51;24.16
39051;BME280;24805;55.852;37.644;2023-04-19T18:55:05;100221.31;;;14.39;23.55
39051;BME280;24805;55.852;37.644;2023-04-19T19:00:08;100210.66;;;14.25;23.17
39051;BME280;24805;55.852;37.644;2023-04-19T19:05:12;100216.75;;;14.19;23.56
39051;BME280;24805;55.852;37.644;2023-04-19T19:10:16;100220.16;;;14.12;24.00
39051;BME280;24805;55.852;37.644;2023-04-19T19:15:23;100222.06;;;14.04;23.41
39051;BME280;24805;55.852;37.644;2023-04-19T19:20:25;100219.50;;;13.96;24.50
39051;BME280;24805;55.852;37.644;2023-04-19T19:25:27;100213.59;;;14.30;22.20
39051;BME280;24805;55.852;37.644;2023-04-19T19:30:29;100222.75;;;13.83;23.88
39051;BME280;24805;55.852;37.644;2023-04-19T19:35:34;100216.75;;;13.66;24.51
39051;BME280;24805;55.852;37.644;2023-04-19T19:40:37;100220.69;;;13.56;24.84
39051;BME280;24805;55.852;37.644;2023-04-19T19:46:00;100225.09;;;13.49;24.73
39051;BME280;24805;55.852;37.644;2023-04-19T19:51:02;100216.69;;;13.37;24.96
39051;BME280;24805;55.852;37.644;2023-04-19T19:56:25;100210.94;;;13.25;25.08
39051;BME280;24805;55.852;37.644;2023-04-19T20:01:30;100217.00;;;13.11;25.43
39051;BME280;24805;55.852;37.644;2023-04-19T20:06:32;100220.06;;;13.00;25.14
39051;BME280;24805;55.852;37.644;2023-04-19T20:11:54;100217.47;;;12.92;25.19
39051;BME280;24805;55.852;37.644;2023-04-19T20:16:56;100210.28;;;13.23;23.24
39051;BME280;24805;55.852;37.644;2023-04-19T20:22:01;100176.41;;;12.55;25.46
39051;BME280;24805;55.852;37.644;2023-04-19T20:27:04;100203.84;;;12.56;25.89
39051;BME280;24805;55.852;37.644;2023-04-19T20:32:06;100200.66;;;12.91;24.04
39051;BME280;24805;55.852;37.644;2023-04-19T20:37:09;100198.41;;;12.41;26.37
39051;BME280;24805;55.852;37.644;2023-04-19T20:42:12;100196.13;;;12.30;26.33
39051;BME280;24805;55.852;37.644;2023-04-19T20:47:15;100201.47;;;12.22;27.05
39051;BME280;24805;55.852;37.644;2023-04-19T20:52:19;100174.44;;;12.02;26.94
39051;BME280;24805;55.852;37.644;2023-04-19T20:57:21;100193.22;;;12.08;26.91
39051;BME280;24805;55.852;37.644;2023-04-19T21:02:23;100191.06;;;12.04;26.75
39051;BME280;24805;55.852;37.644;2023-04-19T21:07:26;100189.28;;;11.96;27.11
39051;BME280;24805;55.852;37.644;2023-04-19T21:12:28;100198.91;;;11.89;27.16
39051;BME280;24805;55.852;37.644;2023-04-19T21:17:30;100186.50;;;12.21;25.25
39051;BME280;24805;55.852;37.644;2023-04-19T21:22:32;100183.50;;;11.77;26.86
39051;BME280;24805;55.852;37.644;2023-04-19T21:27:34;100190.09;;;11.64;27.23
39051;BME280;24805;55.852;37.644;2023-04-19T21:32:37;100185.81;;;11.55;27.39
39051;BME280;24805;55.852;37.644;2023-04-19T21:37:39;100176.00;;;11.48;27.75
39051;BME280;24805;55.852;37.644;2023-04-19T21:42:41;100175.81;;;11.82;25.73
39051;BME280;24805;55.852;37.644;2023-04-19T21:47:43;100166.41;;;11.38;27.61
39051;BME280;24805;55.852;37.644;2023-04-19T21:52:46;100176.69;;;11.33;27.63
39051;BME280;24805;55.852;37.644;2023-04-19T21:57:48;100178.66;;;11.72;25.30
39051;BME280;24805;55.852;37.644;2023-04-19T22:02:50;100182.16;;;11.40;27.66
39051;BME280;24805;55.852;37.644;2023-04-19T22:07:53;100178.84;;;11.38;28.41
39051;BME280;24805;55.852;37.644;2023-04-19T22:12:55;100167.03;;;11.40;28.06
39051;BME280;24805;55.852;37.644;2023-04-19T22:17:59;100161.72;;;11.40;28.65
39051;BME280;24805;55.852;37.644;2023-04-19T22:23:04;100165.75;;;11.36;27.99
39051;BME280;24805;55.852;37.644;2023-04-19T22:28:06;100158.59;;;11.29;28.77
39051;BME280;24805;55.852;37.644;2023-04-19T22:33:08;100155.94;;;11.21;28.10
39051;BME280;24805;55.852;37.644;2023-04-19T22:38:10;100164.25;;;11.18;28.54
39051;BME280;24805;55.852;37.644;2023-04-19T22:43:13;100137.66;;;11.01;28.45
39051;BME280;24805;55.852;37.644;2023-04-19T22:48:15;100149.59;;;11.46;26.53
39051;BME280;24805;55.852;37.644;2023-04-19T22:53:17;100143.28;;;11.39;25.79
39051;BME280;24805;55.852;37.644;2023-04-19T22:58:19;100146.44;;;10.86;28.21
39051;BME280;24805;55.852;37.644;2023-04-19T23:03:21;100135.31;;;10.66;29.11
39051;BME280;24805;55.852;37.644;2023-04-19T23:08:23;100144.31;;;10.97;26.56
39051;BME280;24805;55.852;37.644;2023-04-19T23:13:27;100145.72;;;10.51;29.42
39051;BME280;24805;55.852;37.644;2023-04-19T23:18:29;100135.41;;;10.40;29.77
39051;BME280;24805;55.852;37.644;2023-04-19T23:23:31;100128.38;;;10.73;27.00
39051;BME280;24805;55.852;37.644;2023-04-19T23:28:33;100133.56;;;10.32;29.63
39051;BME280;24805;55.852;37.644;2023-04-19T23:33:35;100128.91;;;10.26;29.30
39051;BME280;24805;55.852;37.644;2023-04-19T23:38:37;100129.00;;;10.59;27.34
39051;BME280;24805;55.852;37.644;2023-04-19T23:43:39;100131.19;;;10.21;30.10
39051;BME280;24805;55.852;37.644;2023-04-19T23:48:41;100123.19;;;10.13;30.38
39051;BME280;24805;55.852;37.644;2023-04-19T23:53:43;100118.84;;;10.46;27.69
39051;BME280;24805;55.852;37.644;2023-04-19T23:58:45;100112.19;;;10.00;29.81
